Alverda, Pennsylvania
Current Conditions -  °F | °C
As of 3:15 PM on Monday 24 Nov 2014 (Local Time) from KIDI Reporting Station
Clear Clear  
Wind Chill: 68°   Ceiling: Unl
Heat Index: 68°   Visibility: 10mi
Dew Point: 43°   Wind: 25mph
Humidity: 40%   Direction: 250°WSW
Pressure: 29.51"   Gusts: 37mph
Location:  40.63°N, 78.86°W
Report Text: KIDI 242015Z AUTO 25022G32KT 10SM CLR 20/06 A2951 RMK A01
Loading
Personal Weather Stations






























Interactive Weather Map New forecast layout! Learn more

10-Day Weather Forecast

Advertisements
Track Severe Weather on mobile